Estación Meteorológica Peña el Pijo (Robertgarden) [ 05/25/18 12:36:19 CEST ]

Fecha Hora Presion(HPa) Temp (°C) Humedad % Rocio (°C) Viento ( m/s) Direccion Lluvia 1Hora(mm) Lluvia 24H(mm) LLuvia Total(mm)
2018-Jan-21 01:01:42 1015.800 7.4 53 -1.6         62.16
2018-Jan-21 02:02:28 1015.900 4.5 59 -2.8         62.16
2018-Jan-21 03:03:17 1016.100 3.3 66 -2.5         62.16
2018-Jan-21 04:05:12 1016.000 5.9 59 -1.5         62.16
2018-Jan-21 05:01:43 1015.900 4.4 60 -2.7         62.16
2018-Jan-21 06:01:40 1015.700 3.4 64 -2.8         62.16
2018-Jan-21 07:01:53 155.500 6.6 66 0.7         62.16
2018-Jan-21 08:01:45 1016.100 6.1 63 -0.4         62.16
2018-Jan-21 09:01:41 1016.600 3.3 70 -1.6         62.16
2018-Jan-21 10:01:40 1017.000 9.2 70 4.0         62.16
2018-Jan-21 11:01:47 1017.500 13.3 54 4.1         62.16
2018-Jan-21 12:01:34 1017.200 15.0 50 5.0         62.16
2018-Jan-21 13:01:31 1016.700 15.6 47 4.3         62.16
2018-Jan-21 14:01:34 1015.500 17.7 42 4.7 2.8 SW     62.16
2018-Jan-21 15:01:46 1015.500 17.6 40 3.8         62.16
2018-Jan-21 16:01:43 1015.500 16.9 42 3.8 0.6 E     62.16
2018-Jan-21 17:01:17 1015.600 14.9 46 3.3         62.16
2018-Jan-21 18:01:22 1016.100 12.6 53 3.3         62.16
2018-Jan-21 19:01:57 1016.900 9.5 59 1.9         62.16
2018-Jan-21 20:01:43 1017.500 7.8 67 2.0         62.16
2018-Jan-21 21:01:53 1017.900 7.0 72 2.3         62.16
2018-Jan-21 22:01:38 1018.000 6.1 74 1.8         62.16
2018-Jan-21 23:01:47 1018.300 5.3 76 1.4         62.16

Temperatura Máxima:17°    Temperatura Mínima:
Presión Máxima:1018.300 Hpa    Presión Mínima:155.500 Hpa


Volver